M.t. King Everest — V7DB8 — position and weather

sailwx.info

Track history (hours):
 
Tides and Currents Weather Stations Pressure Air Temp Water Temp Dewpoint Dewpoint Depression Visibility Wind Speed Wind Dir Waves Ship Positions

M.t. King Everest

Last reported at 2015-Mar-03 10:15 UTC. Time now 2015-Mar-03 11:14 UTC.
Position N 55°51' E 015°25'.

Length 181 m; draft 10.8 m.

Type: Ship. MMSI: 538090267.

Date/timePositionNaut miles runAvg speedWind from/ knotsBaromVisibWave heightAir tempDewpointWater temp
2015-Mar-03 10:15N 55°51' E 015°25'4 0.2
2015-Mar-02 08:33N 55°53' E 015°20'0 0.5
2015-Mar-02 07:29N 55°53' E 015°20'0 0.4
2015-Mar-02 06:33N 55°52' E 015°20'0 0.4
2015-Mar-02 05:33N 55°52' E 015°21'3 0.8
2015-Mar-02 02:23N 55°51' E 015°25'1 0.3
2015-Mar-01 21:07N 55°51' E 015°27'1 1.1
2015-Mar-01 20:19N 55°51' E 015°26'1 0.9
2015-Mar-01 19:33N 55°50' E 015°25'2 0.3
2015-Mar-01 12:18N 55°48' E 015°25'4 0.3
2015-Mar-01 00:33N 55°52' E 015°26'1 0.1
2015-Feb-28 13:18N 55°51' E 015°27'3 0.1
2015-Feb-27 11:31N 55°50' E 015°23'1 0.6
2015-Feb-27 10:33N 55°50' E 015°23'1 0.6
2015-Feb-27 09:12N 55°51' E 015°24'1 0.7
2015-Feb-27 07:12N 55°51' E 015°26'3 0.5
2015-Feb-27 01:30N 55°54' E 015°27'1 0.5
2015-Feb-27 00:33N 55°54' E 015°28'1 0.6
2015-Feb-26 23:33N 55°54' E 015°29'1 0.8
2015-Feb-26 22:33N 55°53' E 015°30'1 0.6
2015-Feb-26 21:33N 55°53' E 015°31'3 0.8
2015-Feb-26 18:19N 55°52' E 015°35'1 0.6
2015-Feb-26 17:15N 55°52' E 015°37'2 2.2
2015-Feb-26 16:09N 55°53' E 015°41'  
Track history (hours):
 
Tides and Currents Weather Stations Pressure Air Temp Water Temp Dewpoint Dewpoint Depression Visibility Wind Speed Wind Dir Waves Ship Positions

M.t. King Everest

Last reported at 2015-Mar-03 10:15 UTC. Time now 2015-Mar-03 11:14 UTC.
Position N 55°51' E 015°25'.

Length 181 m; draft 10.8 m.

Type: Ship. MMSI: 538090267.

Date/timePositionNaut miles runAvg speedWind from/ knotsBaromVisibWave heightAir tempDewpointWater temp
2015-Mar-03 10:15N 55°51' E 015°25'4 0.2
2015-Mar-02 08:33N 55°53' E 015°20'0 0.5
2015-Mar-02 07:29N 55°53' E 015°20'0 0.4
2015-Mar-02 06:33N 55°52' E 015°20'0 0.4
2015-Mar-02 05:33N 55°52' E 015°21'3 0.8
2015-Mar-02 02:23N 55°51' E 015°25'1 0.3
2015-Mar-01 21:07N 55°51' E 015°27'1 1.1
2015-Mar-01 20:19N 55°51' E 015°26'1 0.9
2015-Mar-01 19:33N 55°50' E 015°25'2 0.3
2015-Mar-01 12:18N 55°48' E 015°25'4 0.3
2015-Mar-01 00:33N 55°52' E 015°26'1 0.1
2015-Feb-28 13:18N 55°51' E 015°27'3 0.1
2015-Feb-27 11:31N 55°50' E 015°23'1 0.6
2015-Feb-27 10:33N 55°50' E 015°23'1 0.6
2015-Feb-27 09:12N 55°51' E 015°24'1 0.7
2015-Feb-27 07:12N 55°51' E 015°26'3 0.5
2015-Feb-27 01:30N 55°54' E 015°27'1 0.5
2015-Feb-27 00:33N 55°54' E 015°28'1 0.6
2015-Feb-26 23:33N 55°54' E 015°29'1 0.8
2015-Feb-26 22:33N 55°53' E 015°30'1 0.6
2015-Feb-26 21:33N 55°53' E 015°31'3 0.8
2015-Feb-26 18:19N 55°52' E 015°35'1 0.6
2015-Feb-26 17:15N 55°52' E 015°37'2 2.2
2015-Feb-26 16:09N 55°53' E 015°41'  

Dump ship's entire track history